OOCL Luxembourg — VRGO3 — position and weather

sailwx.info

Track history (hours):
 
Tides and Currents Weather Stations Pressure Air Temp Water Temp Dewpoint Dewpoint Depression Visibility Wind Speed Wind Dir Waves Ship Positions

OOCL Luxembourg

Last reported at 2018-Jul-14 18:52 UTC. Time now 2018-Jul-18 18:36 UTC.
Position N 34°58' E 128°49'.

Length 323 m; draft 11.6 m.

Type: Cargo ship. MMSI: 477691910.

Date/timePositionNaut miles runAvg speedWind from/ knotsBaromVisibWave heightAir tempDewpointWater temp
2018-Jul-14 18:52N 34°58' E 128°49'383 8.1
2018-Jul-12 19:36N 31°06' E 122°46'617.2
2018-Jul-12 19:16N 31°05' E 122°39'516.4
2018-Jul-12 18:56N 31°06' E 122°33'511.1
2018-Jul-12 18:30N 31°06' E 122°27'611.2
2018-Jul-12 17:59N 31°06' E 122°20'714.4
2018-Jul-12 17:30N 31°09' E 122°13'714.0
2018-Jul-12 17:00N 31°13' E 122°06'714.9
2018-Jul-12 16:30N 31°15' E 121°58'815.0
2018-Jul-12 16:00N 31°17' E 121°50'  
2018-Jul-06 06:06N 34°59' E 128°49'1 7.6
2018-Jul-06 05:58N 34°58' E 128°49'71 3.9
2018-Jul-05 12:00N 35°18' E 130°12'   050 / 41006.0 5.4 22.020.523.6
Track history (hours):
 
Tides and Currents Weather Stations Pressure Air Temp Water Temp Dewpoint Dewpoint Depression Visibility Wind Speed Wind Dir Waves Ship Positions

OOCL Luxembourg

Last reported at 2018-Jul-14 18:52 UTC. Time now 2018-Jul-18 18:36 UTC.
Position N 34°58' E 128°49'.

Length 323 m; draft 11.6 m.

Type: Cargo ship. MMSI: 477691910.

Date/timePositionNaut miles runAvg speedWind from/ knotsBaromVisibWave heightAir tempDewpointWater temp
2018-Jul-14 18:52N 34°58' E 128°49'383 8.1
2018-Jul-12 19:36N 31°06' E 122°46'617.2
2018-Jul-12 19:16N 31°05' E 122°39'516.4
2018-Jul-12 18:56N 31°06' E 122°33'511.1
2018-Jul-12 18:30N 31°06' E 122°27'611.2
2018-Jul-12 17:59N 31°06' E 122°20'714.4
2018-Jul-12 17:30N 31°09' E 122°13'714.0
2018-Jul-12 17:00N 31°13' E 122°06'714.9
2018-Jul-12 16:30N 31°15' E 121°58'815.0
2018-Jul-12 16:00N 31°17' E 121°50'  
2018-Jul-06 06:06N 34°59' E 128°49'1 7.6
2018-Jul-06 05:58N 34°58' E 128°49'71 3.9
2018-Jul-05 12:00N 35°18' E 130°12'   050 / 41006.0 5.4 22.020.523.6

Dump ship's entire track history